TNCC/CUR METAR and TAF weather

Enter ICAO airport designator
Station Type Date Time Source
TNCC METAR 2019/08/18 19:00 UTC NOAA

TNCC 181900Z 09011KT 9999 FEW028 31/24 Q1012 NOSIG


Station Type Date Time Source
TNCC Decoded METAR 2019/08/18 19:00 UTC NOAA

Station name not available
Aug 18, 2019 - 03:00 PM EDT / 2019.08.18 1900 UTC
Wind: from the E (090 degrees) at 13 MPH (11 KT):0
Visibility: greater than 7 mile(s):0
Sky conditions: mostly clear
Temperature: 87 F (31 C)
Heat index: 95.7 F (35.4 C):1
Dew Point: 75 F (24 C)
Relative Humidity: 66%
Pressure (altimeter): 29.88 in. Hg (1012 hPa)
ob: TNCC 181900Z 09011KT 9999 FEW028 31/24 Q1012 NOSIG
cycle: 19

Station Type Date Time Source
TNCC TAF 2019/08/18 18:52 UTC NOAA

TAF TNCC 181600Z 1818/1918 11013KT 9999 SCT022

Example: see airport list